Погода Бакабална неделю

Мараньян, Бразилия

16 - 22 июля
  • 16июля
    Сегодня
    +22°
    +34°
    Практически безоблачно
    ВремяПогодаТемператураВлажностьДавлениеВетер, м/сВероятность осадков
    00:00Ясно и безоблачно+25°C79 %758 мм1.3 м/с5 %
    03:00Ясно и безоблачно+24°C80 %758 мм2.1 м/с5 %
    06:00Ясно и безоблачно+22°C73 %758 мм2.0 м/с5 %
    09:00Ясно и безоблачно+27°C60 %760 мм2.7 м/с5 %
    12:00Ясно и безоблачно+32°C47 %759 мм4.2 м/с5 %
    15:00Практически безоблачно+33°C42 %757 мм3.0 м/с5 %
    18:00Ясно и безоблачно+30°C57 %758 мм1.9 м/с5 %
    21:00Ясно и безоблачно+27°C66 %759 мм2.5 м/с5 %
  • 17июля
    Среда
    +23°
    +33°
    Практически безоблачно
    ВремяПогодаТемператураВлажностьДавлениеВетер, м/сВероятность осадков
    00:00Ясно и безоблачно+25°C72 %759 мм2.0 м/с5 %
    03:00Ясно и безоблачно+24°C66 %758 мм2.6 м/с5 %
    06:00Ясно и безоблачно+22°C66 %758 мм3.0 м/с5 %
    09:00Ясно и безоблачно+27°C59 %760 мм2.6 м/с3 %
    12:00Ясно и безоблачно+31°C49 %759 мм4.2 м/с5 %
    15:00Практически безоблачно+33°C42 %757 мм3.2 м/с5 %
    18:00Практически безоблачно+30°C64 %757 мм1.5 м/с5 %
    21:00Небольшая облачность+28°C73 %758 мм1.6 м/с5 %
  • 18июля
    Четверг
    +23°
    +33°
    Облачно с прояснениями
    ВремяПогодаТемператураВлажностьДавлениеВетер, м/сВероятность осадков
    00:00Ясно и безоблачно+27°C76 %758 мм0.6 м/с5 %
    03:00Облачно с прояснениями+24°C82 %757 мм1.1 м/с5 %
    06:00Практически безоблачно+23°C82 %758 мм0.9 м/с5 %
    09:00Ясно и безоблачно+28°C59 %759 мм2.5 м/с5 %
    12:00Практически безоблачно+32°C48 %758 мм4.2 м/с10 %
    15:00Облачно с прояснениями+32°C46 %756 мм3.1 м/с3 %
    18:00Ясно и безоблачно+30°C67 %757 мм1.6 м/с5 %
    21:00Ясно и безоблачно+28°C72 %758 мм1.9 м/с5 %
  • 19июля
    Пятница
    +23°
    +35°
    Ясно и безоблачно
    ВремяПогодаТемператураВлажностьДавлениеВетер, м/сВероятность осадков
    00:00Ясно и безоблачно+26°C81 %758 мм1.5 м/с3 %
    03:00Ясно и безоблачно+25°C83 %757 мм0.6 м/с6 %
    06:00Ясно и безоблачно+23°C90 %758 мм1.3 м/с5 %
    09:00Ясно и безоблачно+28°C74 %759 мм0.6 м/с11 %
    12:00Ясно и безоблачно+33°C53 %758 мм2.1 м/с17 %
    15:00Ясно и безоблачно+34°C46 %756 мм2.2 м/с6 %
    18:00Ясно и безоблачно+31°C65 %757 мм1.3 м/с5 %
    21:00Ясно и безоблачно+29°C70 %758 мм2.6 м/с4 %
  • 20июля
    Суббота
    +22°
    +34°
    Ясно и безоблачно
    ВремяПогодаТемператураВлажностьДавлениеВетер, м/сВероятность осадков
    00:00Ясно и безоблачно+26°C77 %758 мм1.4 м/с6 %
    03:00Облачно с прояснениями+25°C81 %757 мм2.0 м/с38 %
    06:00Ясно и безоблачно+23°C90 %758 мм1.1 м/с43 %
    09:00Небольшая облачность и лёгкий дождик+28°C70 %759 мм2.2 м/с54 %
    12:00Ясно и безоблачно+33°C43 %758 мм4.4 м/с29 %
    15:00Ясно и безоблачно+34°C40 %756 мм3.3 м/с4 %
    18:00Ясно и безоблачно+31°C57 %756 мм1.9 м/с5 %
    21:00Ясно и безоблачно+28°C52 %757 мм3.0 м/с5 %
Мы используем cookies
Соглашаюсь